Flight Track Log - Related Links

Times and Time Zones

All times are in EDT time to prevent confusion due to time zone crossing. See the EGF2912 flight status page for this flight to view local times or setup timezone preferences in your user account.

Time Position Orientation Groundspeed Altitude Reporting Facility
EDT Latitude Longitude Course Direction KTS MPH feet Rate Location/Type
Wed 05:23:15 PM 32.8730 -97.0333 266° West  Level FlightAware Approximate
Wed 05:24:00 PM 32.8719 -97.0517 180° South 160 184 2,000  Level FAA TRACON SMA TRACON (SMA)
Wed 05:24:40 PM 32.8347 -97.0517 181° South 193 222 3,800 2,051 Climbing FAA TRACON SMA TRACON (SMA)
Wed 05:25:19 PM 32.7919 -97.0525 181° South 227 261 4,700 1,443 Climbing FAA TRACON SMA TRACON (SMA)
Wed 05:25:59 PM 32.7475 -97.0533 183° South 262 302 5,700 1,950 Climbing FAA TRACON SMA TRACON (SMA)
Wed 05:26:39 PM 32.6964 -97.0564 194° South 268 308 7,300 2,250 Climbing FAA TRACON SMA TRACON (SMA)
Wed 05:27:19 PM 32.6453 -97.0711 196° South 274 315 8,700 1,950 Climbing FAA TRACON SMA TRACON (SMA)
Wed 05:27:59 PM 32.5989 -97.0869 195° South 282 325 9,900 1,500 Climbing FAA TRACON SMA TRACON (SMA)
Wed 05:28:39 PM 32.5419 -97.1050 195° South 310 357 10,700 1,275 Climbing FAA TRACON SMA TRACON (SMA)
Wed 05:29:19 PM 32.4800 -97.1242 195° South 334 384 11,600 1,425 Climbing FAA TRACON SMA TRACON (SMA)
Wed 05:29:59 PM 32.4236 -97.1417 195° South 341 392 12,600 1,683 Climbing FAA TRACON SMA TRACON (SMA)
Wed 05:30:41 PM 32.3594 -97.1617 202° Southwest 343 395 13,900 1,800 Climbing FAA TRACON SMA TRACON (SMA)
Wed 05:31:19 PM 32.3058 -97.1878 220° Southwest 339 390 15,000 1,769 Climbing FAA TRACON SMA TRACON (SMA)
Wed 05:31:59 PM 32.2556 -97.2375 221° Southwest 338 389 16,200 1,725 Climbing FAA TRACON SMA TRACON (SMA)
Wed 05:32:39 PM 32.2056 -97.2897 219° Southwest 346 398 17,300 1,800 Climbing FAA TRACON SMA TRACON (SMA)
Wed 05:33:19 PM 32.1594 -97.3342 220° Southwest 347 399 18,600 1,800 Climbing FAA TRACON SMA TRACON (SMA)
Wed 05:33:59 PM 32.1069 -97.3869 221° Southwest 355 409 19,700 1,037 Climbing FAA TRACON SMA TRACON (SMA)
Wed 05:34:40 PM 32.0519 -97.4425 219° Southwest 376 433 20,000 225 Climbing FAA TRACON SMA TRACON (SMA)
Wed 05:35:19 PM 31.9981 -97.4939 221° Southwest 404 465 20,000  Level FAA TRACON SMA TRACON (SMA)
Wed 05:37:00 PM 31.8456 -97.6481 220° Southwest 430 495 20,000 -522 Level Fort Worth Center
Wed 05:38:00 PM 31.7556 -97.7358 220° Southwest 421 484 18,600 -2,200 Descending Fort Worth Center
Wed 05:39:00 PM 31.6719 -97.8186 219° Southwest 410 472 15,600 -2,500 Descending Fort Worth Center
Wed 05:40:00 PM 31.5922 -97.8939 218° Southwest 391 450 13,600 -1,300 Descending Fort Worth Center
Wed 05:41:00 PM 31.5086 -97.9714 197° South 386 444 13,000 -1,050 Descending Fort Worth Center
Wed 05:42:00 PM 31.4206 -98.0025 153° Southeast 341 392 11,500 -1,550 Descending Fort Worth Center
Wed 05:43:00 PM 31.3353 -97.9508 153° Southeast 308 354 9,900 -1,750 Descending Fort Worth Center
Wed 05:44:00 PM 31.2728 -97.9142 163° South 290 334 8,000 -1,950 Descending Fort Worth Center
Wed 05:45:00 PM 31.2103 -97.8917 163° South 263 303 6,000 -2,000 Descending Fort Worth Center

Login

Don't have an account? Register now (free) for customized features, flight alerts, and more!